sensor_id;sensor_type;location;lat;lon;timestamp;temperature;humidity
2463;DHT22;1243;54.298;10.172;2024-01-27T00:00:08;5.80;1.00
2463;DHT22;1243;54.298;10.172;2024-01-27T00:02:35;5.80;1.00
2463;DHT22;1243;54.298;10.172;2024-01-27T00:05:01;5.90;1.00
2463;DHT22;1243;54.298;10.172;2024-01-27T00:07:28;5.90;1.00
2463;DHT22;1243;54.298;10.172;2024-01-27T00:09:54;5.90;1.00
2463;DHT22;1243;54.298;10.172;2024-01-27T00:12:21;5.90;1.00
2463;DHT22;1243;54.298;10.172;2024-01-27T00:14:46;5.80;1.00
2463;DHT22;1243;54.298;10.172;2024-01-27T00:17:12;5.90;1.00
2463;DHT22;1243;54.298;10.172;2024-01-27T00:19:38;5.90;1.00
2463;DHT22;1243;54.298;10.172;2024-01-27T00:22:04;5.90;1.00
2463;DHT22;1243;54.298;10.172;2024-01-27T00:24:29;5.90;1.00
2463;DHT22;1243;54.298;10.172;2024-01-27T00:26:55;5.90;1.00
2463;DHT22;1243;54.298;10.172;2024-01-27T00:29:22;5.80;1.00
2463;DHT22;1243;54.298;10.172;2024-01-27T00:31:47;5.80;1.00
2463;DHT22;1243;54.298;10.172;2024-01-27T00:34:14;5.90;1.00
2463;DHT22;1243;54.298;10.172;2024-01-27T00:36:40;5.80;1.00
2463;DHT22;1243;54.298;10.172;2024-01-27T00:39:08;5.80;1.00
2463;DHT22;1243;54.298;10.172;2024-01-27T00:41:34;5.70;1.00
2463;DHT22;1243;54.298;10.172;2024-01-27T00:43:59;5.70;1.00
2463;DHT22;1243;54.298;10.172;2024-01-27T00:46:25;5.60;1.00
2463;DHT22;1243;54.298;10.172;2024-01-27T00:48:51;5.70;1.00
2463;DHT22;1243;54.298;10.172;2024-01-27T00:51:17;5.60;1.00
2463;DHT22;1243;54.298;10.172;2024-01-27T00:53:43;5.60;1.00
2463;DHT22;1243;54.298;10.172;2024-01-27T00:56:08;5.60;1.00
2463;DHT22;1243;54.298;10.172;2024-01-27T00:58:34;5.60;1.00
2463;DHT22;1243;54.298;10.172;2024-01-27T01:01:00;5.60;1.00
2463;DHT22;1243;54.298;10.172;2024-01-27T01:03:26;5.60;1.00
2463;DHT22;1243;54.298;10.172;2024-01-27T01:05:52;5.60;1.00
2463;DHT22;1243;54.298;10.172;2024-01-27T01:08:18;5.60;1.00
2463;DHT22;1243;54.298;10.172;2024-01-27T01:10:44;5.60;1.00
2463;DHT22;1243;54.298;10.172;2024-01-27T01:13:09;5.50;1.00
2463;DHT22;1243;54.298;10.172;2024-01-27T01:15:35;5.50;1.00
2463;DHT22;1243;54.298;10.172;2024-01-27T01:18:01;5.50;1.00
2463;DHT22;1243;54.298;10.172;2024-01-27T01:20:27;5.40;1.00
2463;DHT22;1243;54.298;10.172;2024-01-27T01:22:53;5.50;1.00
2463;DHT22;1243;54.298;10.172;2024-01-27T01:25:19;5.50;1.00
2463;DHT22;1243;54.298;10.172;2024-01-27T01:27:47;5.50;1.00
2463;DHT22;1243;54.298;10.172;2024-01-27T01:30:15;5.50;1.00
2463;DHT22;1243;54.298;10.172;2024-01-27T01:32:41;5.40;1.00
2463;DHT22;1243;54.298;10.172;2024-01-27T01:35:06;5.40;1.00
2463;DHT22;1243;54.298;10.172;2024-01-27T01:37:32;5.50;1.00
2463;DHT22;1243;54.298;10.172;2024-01-27T01:39:58;5.50;1.00
2463;DHT22;1243;54.298;10.172;2024-01-27T01:42:24;5.60;1.00
2463;DHT22;1243;54.298;10.172;2024-01-27T01:44:53;5.60;1.00
2463;DHT22;1243;54.298;10.172;2024-01-27T01:47:19;5.60;1.00
2463;DHT22;1243;54.298;10.172;2024-01-27T01:49:45;5.60;1.00
2463;DHT22;1243;54.298;10.172;2024-01-27T01:52:10;5.70;1.00
2463;DHT22;1243;54.298;10.172;2024-01-27T01:54:37;5.70;1.00
2463;DHT22;1243;54.298;10.172;2024-01-27T01:57:03;5.70;1.00
2463;DHT22;1243;54.298;10.172;2024-01-27T01:59:29;5.60;1.00
2463;DHT22;1243;54.298;10.172;2024-01-27T02:01:55;5.70;1.00
2463;DHT22;1243;54.298;10.172;2024-01-27T02:04:20;5.60;1.00
2463;DHT22;1243;54.298;10.172;2024-01-27T02:06:46;5.60;1.00
2463;DHT22;1243;54.298;10.172;2024-01-27T02:09:12;5.60;1.00
2463;DHT22;1243;54.298;10.172;2024-01-27T02:11:38;5.60;1.00
2463;DHT22;1243;54.298;10.172;2024-01-27T02:14:04;5.60;1.00
2463;DHT22;1243;54.298;10.172;2024-01-27T02:16:30;5.60;1.00
2463;DHT22;1243;54.298;10.172;2024-01-27T02:18:55;5.60;1.00
2463;DHT22;1243;54.298;10.172;2024-01-27T02:21:21;5.70;1.00
2463;DHT22;1243;54.298;10.172;2024-01-27T02:23:47;5.70;1.00
2463;DHT22;1243;54.298;10.172;2024-01-27T02:26:12;5.70;1.00
2463;DHT22;1243;54.298;10.172;2024-01-27T02:28:38;5.80;1.00
2463;DHT22;1243;54.298;10.172;2024-01-27T02:31:04;5.90;1.00
2463;DHT22;1243;54.298;10.172;2024-01-27T02:33:30;5.90;1.00
2463;DHT22;1243;54.298;10.172;2024-01-27T02:35:55;5.90;1.00
2463;DHT22;1243;54.298;10.172;2024-01-27T02:38:21;5.90;1.00
2463;DHT22;1243;54.298;10.172;2024-01-27T02:40:47;5.90;1.00
2463;DHT22;1243;54.298;10.172;2024-01-27T02:43:12;5.90;1.00
2463;DHT22;1243;54.298;10.172;2024-01-27T02:45:40;5.90;1.00
2463;DHT22;1243;54.298;10.172;2024-01-27T02:48:05;5.90;1.00
2463;DHT22;1243;54.298;10.172;2024-01-27T02:50:31;5.90;1.00
2463;DHT22;1243;54.298;10.172;2024-01-27T02:52:57;6.00;1.00
2463;DHT22;1243;54.298;10.172;2024-01-27T02:55:22;6.00;1.00
2463;DHT22;1243;54.298;10.172;2024-01-27T02:57:48;6.00;1.00
2463;DHT22;1243;54.298;10.172;2024-01-27T03:00:14;6.00;1.00
2463;DHT22;1243;54.298;10.172;2024-01-27T03:02:40;6.00;1.00
2463;DHT22;1243;54.298;10.172;2024-01-27T03:05:05;6.00;1.00
2463;DHT22;1243;54.298;10.172;2024-01-27T03:07:31;6.00;1.00
2463;DHT22;1243;54.298;10.172;2024-01-27T03:09:57;6.00;1.00
2463;DHT22;1243;54.298;10.172;2024-01-27T03:12:23;6.00;1.00
2463;DHT22;1243;54.298;10.172;2024-01-27T03:14:49;6.00;1.00
2463;DHT22;1243;54.298;10.172;2024-01-27T03:17:16;6.10;1.00
2463;DHT22;1243;54.298;10.172;2024-01-27T03:19:42;6.10;1.00
2463;DHT22;1243;54.298;10.172;2024-01-27T03:22:07;6.10;1.00
2463;DHT22;1243;54.298;10.172;2024-01-27T03:24:33;6.10;1.00
2463;DHT22;1243;54.298;10.172;2024-01-27T03:26:58;6.10;1.00
2463;DHT22;1243;54.298;10.172;2024-01-27T03:29:24;6.20;1.00
2463;DHT22;1243;54.298;10.172;2024-01-27T03:31:50;6.20;1.00
2463;DHT22;1243;54.298;10.172;2024-01-27T03:34:16;6.20;1.00
2463;DHT22;1243;54.298;10.172;2024-01-27T03:36:43;6.20;1.00
2463;DHT22;1243;54.298;10.172;2024-01-27T03:39:08;6.30;1.00
2463;DHT22;1243;54.298;10.172;2024-01-27T03:41:34;6.30;1.00
2463;DHT22;1243;54.298;10.172;2024-01-27T03:44:00;6.20;1.00
2463;DHT22;1243;54.298;10.172;2024-01-27T03:46:26;6.30;1.00
2463;DHT22;1243;54.298;10.172;2024-01-27T03:48:52;6.30;1.00
2463;DHT22;1243;54.298;10.172;2024-01-27T03:51:18;6.30;1.00
2463;DHT22;1243;54.298;10.172;2024-01-27T03:53:43;6.30;1.00
2463;DHT22;1243;54.298;10.172;2024-01-27T03:56:12;6.30;1.00
2463;DHT22;1243;54.298;10.172;2024-01-27T03:58:37;6.30;1.00
2463;DHT22;1243;54.298;10.172;2024-01-27T04:01:04;6.30;1.00
2463;DHT22;1243;54.298;10.172;2024-01-27T04:03:30;6.30;1.00
2463;DHT22;1243;54.298;10.172;2024-01-27T04:05:55;6.40;1.00
2463;DHT22;1243;54.298;10.172;2024-01-27T04:08:21;6.40;1.00
2463;DHT22;1243;54.298;10.172;2024-01-27T04:10:47;6.40;1.00
2463;DHT22;1243;54.298;10.172;2024-01-27T04:13:12;6.40;1.00
2463;DHT22;1243;54.298;10.172;2024-01-27T04:15:38;6.30;1.00
2463;DHT22;1243;54.298;10.172;2024-01-27T04:18:07;6.30;1.00
2463;DHT22;1243;54.298;10.172;2024-01-27T04:20:34;6.40;1.00
2463;DHT22;1243;54.298;10.172;2024-01-27T04:23:01;6.40;1.00
2463;DHT22;1243;54.298;10.172;2024-01-27T04:25:26;6.40;1.00
2463;DHT22;1243;54.298;10.172;2024-01-27T04:27:52;6.40;1.00
2463;DHT22;1243;54.298;10.172;2024-01-27T04:30:18;6.40;1.00
2463;DHT22;1243;54.298;10.172;2024-01-27T04:32:44;6.40;1.00
2463;DHT22;1243;54.298;10.172;2024-01-27T04:35:10;6.40;1.00
2463;DHT22;1243;54.298;10.172;2024-01-27T04:37:36;6.40;1.00
2463;DHT22;1243;54.298;10.172;2024-01-27T04:40:06;6.40;1.00
2463;DHT22;1243;54.298;10.172;2024-01-27T04:42:33;6.30;1.00
2463;DHT22;1243;54.298;10.172;2024-01-27T04:44:59;6.30;1.00
2463;DHT22;1243;54.298;10.172;2024-01-27T04:47:25;6.20;1.00
2463;DHT22;1243;54.298;10.172;2024-01-27T04:49:51;6.20;1.00
2463;DHT22;1243;54.298;10.172;2024-01-27T04:52:17;6.20;1.00
2463;DHT22;1243;54.298;10.172;2024-01-27T04:54:42;6.20;1.00
2463;DHT22;1243;54.298;10.172;2024-01-27T04:57:09;6.10;1.00
2463;DHT22;1243;54.298;10.172;2024-01-27T04:59:35;6.20;1.00
2463;DHT22;1243;54.298;10.172;2024-01-27T05:02:01;6.10;1.00
2463;DHT22;1243;54.298;10.172;2024-01-27T05:04:27;6.10;1.00
2463;DHT22;1243;54.298;10.172;2024-01-27T05:06:53;6.10;1.00
2463;DHT22;1243;54.298;10.172;2024-01-27T05:09:18;6.10;1.00
2463;DHT22;1243;54.298;10.172;2024-01-27T05:11:44;6.10;1.00
2463;DHT22;1243;54.298;10.172;2024-01-27T05:14:11;6.10;1.00
2463;DHT22;1243;54.298;10.172;2024-01-27T05:16:36;6.00;1.00
2463;DHT22;1243;54.298;10.172;2024-01-27T05:19:02;6.00;1.00
2463;DHT22;1243;54.298;10.172;2024-01-27T05:21:28;6.00;1.00
2463;DHT22;1243;54.298;10.172;2024-01-27T05:23:54;6.00;1.00
2463;DHT22;1243;54.298;10.172;2024-01-27T05:26:20;6.10;1.00
2463;DHT22;1243;54.298;10.172;2024-01-27T05:28:46;6.10;1.00
2463;DHT22;1243;54.298;10.172;2024-01-27T05:31:12;6.20;1.00
2463;DHT22;1243;54.298;10.172;2024-01-27T05:33:38;6.10;1.00
2463;DHT22;1243;54.298;10.172;2024-01-27T05:36:05;6.20;1.00
2463;DHT22;1243;54.298;10.172;2024-01-27T05:38:31;6.10;1.00
2463;DHT22;1243;54.298;10.172;2024-01-27T05:41:01;6.10;1.00
2463;DHT22;1243;54.298;10.172;2024-01-27T05:43:27;6.00;1.00
2463;DHT22;1243;54.298;10.172;2024-01-27T05:45:53;6.00;1.00
2463;DHT22;1243;54.298;10.172;2024-01-27T05:48:19;6.00;1.00
2463;DHT22;1243;54.298;10.172;2024-01-27T05:50:55;6.00;1.00
2463;DHT22;1243;54.298;10.172;2024-01-27T05:53:21;6.00;1.00
2463;DHT22;1243;54.298;10.172;2024-01-27T05:55:47;6.00;1.00
2463;DHT22;1243;54.298;10.172;2024-01-27T05:58:13;6.00;1.00
2463;DHT22;1243;54.298;10.172;2024-01-27T06:00:39;6.00;1.00
2463;DHT22;1243;54.298;10.172;2024-01-27T06:03:04;6.00;1.00
2463;DHT22;1243;54.298;10.172;2024-01-27T06:05:30;6.00;1.00
2463;DHT22;1243;54.298;10.172;2024-01-27T06:07:56;6.00;1.00
2463;DHT22;1243;54.298;10.172;2024-01-27T06:10:21;6.00;1.00
2463;DHT22;1243;54.298;10.172;2024-01-27T06:12:49;6.10;1.00
2463;DHT22;1243;54.298;10.172;2024-01-27T06:15:15;6.10;1.00
2463;DHT22;1243;54.298;10.172;2024-01-27T06:17:41;6.00;1.00
2463;DHT22;1243;54.298;10.172;2024-01-27T06:20:07;6.00;1.00
2463;DHT22;1243;54.298;10.172;2024-01-27T06:22:33;6.10;1.00
2463;DHT22;1243;54.298;10.172;2024-01-27T06:24:58;6.10;1.00
2463;DHT22;1243;54.298;10.172;2024-01-27T06:27:24;6.10;1.00
2463;DHT22;1243;54.298;10.172;2024-01-27T06:29:50;6.10;1.00
2463;DHT22;1243;54.298;10.172;2024-01-27T06:32:15;6.10;1.00
2463;DHT22;1243;54.298;10.172;2024-01-27T06:34:41;6.10;1.00
2463;DHT22;1243;54.298;10.172;2024-01-27T06:37:07;6.10;1.00
2463;DHT22;1243;54.298;10.172;2024-01-27T06:39:33;6.10;1.00
2463;DHT22;1243;54.298;10.172;2024-01-27T06:41:58;6.00;1.00
2463;DHT22;1243;54.298;10.172;2024-01-27T06:44:24;6.00;1.00
2463;DHT22;1243;54.298;10.172;2024-01-27T06:46:50;6.00;1.00
2463;DHT22;1243;54.298;10.172;2024-01-27T06:49:16;6.00;1.00
2463;DHT22;1243;54.298;10.172;2024-01-27T06:51:43;6.00;1.00
2463;DHT22;1243;54.298;10.172;2024-01-27T06:54:09;6.00;1.00
2463;DHT22;1243;54.298;10.172;2024-01-27T06:56:35;6.00;1.00
2463;DHT22;1243;54.298;10.172;2024-01-27T06:59:00;6.00;1.00
2463;DHT22;1243;54.298;10.172;2024-01-27T07:01:26;6.00;1.00
2463;DHT22;1243;54.298;10.172;2024-01-27T07:03:52;6.00;1.00
2463;DHT22;1243;54.298;10.172;2024-01-27T07:06:17;6.00;1.00
2463;DHT22;1243;54.298;10.172;2024-01-27T07:08:43;5.90;1.00
2463;DHT22;1243;54.298;10.172;2024-01-27T07:11:09;5.90;1.00
2463;DHT22;1243;54.298;10.172;2024-01-27T07:13:35;5.90;1.00
2463;DHT22;1243;54.298;10.172;2024-01-27T07:16:01;5.90;1.00
2463;DHT22;1243;54.298;10.172;2024-01-27T07:18:27;5.90;1.00
2463;DHT22;1243;54.298;10.172;2024-01-27T07:20:52;5.80;1.00
2463;DHT22;1243;54.298;10.172;2024-01-27T07:23:20;5.80;1.00
2463;DHT22;1243;54.298;10.172;2024-01-27T07:25:46;5.70;1.00
2463;DHT22;1243;54.298;10.172;2024-01-27T07:28:11;5.70;1.00
2463;DHT22;1243;54.298;10.172;2024-01-27T07:30:37;5.70;1.00
2463;DHT22;1243;54.298;10.172;2024-01-27T07:33:04;5.60;1.00
2463;DHT22;1243;54.298;10.172;2024-01-27T07:35:29;5.60;1.00
2463;DHT22;1243;54.298;10.172;2024-01-27T07:37:57;5.60;1.00
2463;DHT22;1243;54.298;10.172;2024-01-27T07:40:23;5.60;1.00
2463;DHT22;1243;54.298;10.172;2024-01-27T07:42:48;5.60;1.00
2463;DHT22;1243;54.298;10.172;2024-01-27T07:45:14;5.60;1.00
2463;DHT22;1243;54.298;10.172;2024-01-27T07:47:41;5.70;1.00
2463;DHT22;1243;54.298;10.172;2024-01-27T07:50:07;5.70;1.00
2463;DHT22;1243;54.298;10.172;2024-01-27T07:52:33;5.70;1.00
2463;DHT22;1243;54.298;10.172;2024-01-27T07:54:59;5.70;1.00
2463;DHT22;1243;54.298;10.172;2024-01-27T07:57:24;5.70;1.00
2463;DHT22;1243;54.298;10.172;2024-01-27T07:59:50;5.70;1.00
2463;DHT22;1243;54.298;10.172;2024-01-27T08:02:16;5.70;1.00
2463;DHT22;1243;54.298;10.172;2024-01-27T08:04:41;5.80;1.00
2463;DHT22;1243;54.298;10.172;2024-01-27T08:07:07;5.70;1.00
2463;DHT22;1243;54.298;10.172;2024-01-27T08:09:35;5.80;1.00
2463;DHT22;1243;54.298;10.172;2024-01-27T08:12:02;5.80;1.00
2463;DHT22;1243;54.298;10.172;2024-01-27T08:14:28;5.70;1.00
2463;DHT22;1243;54.298;10.172;2024-01-27T08:16:56;5.70;1.00
2463;DHT22;1243;54.298;10.172;2024-01-27T08:19:23;5.70;1.00
2463;DHT22;1243;54.298;10.172;2024-01-27T08:21:49;5.70;1.00
2463;DHT22;1243;54.298;10.172;2024-01-27T08:24:15;5.70;1.00
2463;DHT22;1243;54.298;10.172;2024-01-27T08:26:41;5.70;1.00
2463;DHT22;1243;54.298;10.172;2024-01-27T08:29:08;5.70;1.00
2463;DHT22;1243;54.298;10.172;2024-01-27T08:31:34;5.70;1.00
2463;DHT22;1243;54.298;10.172;2024-01-27T08:34:00;5.70;1.00
2463;DHT22;1243;54.298;10.172;2024-01-27T08:36:25;5.60;1.00
2463;DHT22;1243;54.298;10.172;2024-01-27T08:38:51;5.70;1.00
2463;DHT22;1243;54.298;10.172;2024-01-27T08:41:17;5.70;1.00
2463;DHT22;1243;54.298;10.172;2024-01-27T08:43:42;5.70;1.00
2463;DHT22;1243;54.298;10.172;2024-01-27T08:46:08;5.70;1.00
2463;DHT22;1243;54.298;10.172;2024-01-27T08:48:37;5.80;1.00
2463;DHT22;1243;54.298;10.172;2024-01-27T08:51:03;5.80;1.00
2463;DHT22;1243;54.298;10.172;2024-01-27T08:53:29;5.80;1.00
2463;DHT22;1243;54.298;10.172;2024-01-27T08:55:55;5.80;1.00
2463;DHT22;1243;54.298;10.172;2024-01-27T08:58:21;5.80;1.00
2463;DHT22;1243;54.298;10.172;2024-01-27T09:00:46;5.90;1.00
2463;DHT22;1243;54.298;10.172;2024-01-27T09:03:12;5.90;1.00
2463;DHT22;1243;54.298;10.172;2024-01-27T09:05:39;6.00;1.00
2463;DHT22;1243;54.298;10.172;2024-01-27T09:08:07;6.00;1.00
2463;DHT22;1243;54.298;10.172;2024-01-27T09:10:33;6.00;1.00
2463;DHT22;1243;54.298;10.172;2024-01-27T09:12:59;6.10;1.00
2463;DHT22;1243;54.298;10.172;2024-01-27T09:15:24;6.10;1.00
2463;DHT22;1243;54.298;10.172;2024-01-27T09:17:50;6.20;1.00
2463;DHT22;1243;54.298;10.172;2024-01-27T09:20:17;6.20;1.00
2463;DHT22;1243;54.298;10.172;2024-01-27T09:22:42;6.30;1.00
2463;DHT22;1243;54.298;10.172;2024-01-27T09:25:10;6.30;1.00
2463;DHT22;1243;54.298;10.172;2024-01-27T09:27:36;6.30;1.00
2463;DHT22;1243;54.298;10.172;2024-01-27T09:30:02;6.30;1.00
2463;DHT22;1243;54.298;10.172;2024-01-27T09:32:28;6.30;1.00
2463;DHT22;1243;54.298;10.172;2024-01-27T09:34:54;6.40;1.00
2463;DHT22;1243;54.298;10.172;2024-01-27T09:37:20;6.50;1.00
2463;DHT22;1243;54.298;10.172;2024-01-27T09:39:45;6.50;1.00
2463;DHT22;1243;54.298;10.172;2024-01-27T09:42:13;6.60;1.00
2463;DHT22;1243;54.298;10.172;2024-01-27T09:44:43;6.60;1.00
2463;DHT22;1243;54.298;10.172;2024-01-27T09:47:13;6.80;1.00
2463;DHT22;1243;54.298;10.172;2024-01-27T09:49:42;6.90;1.00
2463;DHT22;1243;54.298;10.172;2024-01-27T09:52:08;6.90;1.00
2463;DHT22;1243;54.298;10.172;2024-01-27T09:54:35;6.90;1.00
2463;DHT22;1243;54.298;10.172;2024-01-27T09:57:02;6.90;1.00
2463;DHT22;1243;54.298;10.172;2024-01-27T09:59:28;7.00;1.00
2463;DHT22;1243;54.298;10.172;2024-01-27T10:01:54;7.00;1.00
2463;DHT22;1243;54.298;10.172;2024-01-27T10:04:22;7.00;1.00
2463;DHT22;1243;54.298;10.172;2024-01-27T10:06:49;7.10;1.00
2463;DHT22;1243;54.298;10.172;2024-01-27T10:09:16;7.20;1.00
2463;DHT22;1243;54.298;10.172;2024-01-27T10:11:46;7.30;1.00
2463;DHT22;1243;54.298;10.172;2024-01-27T10:14:13;7.30;1.00
2463;DHT22;1243;54.298;10.172;2024-01-27T10:16:43;7.30;1.00
2463;DHT22;1243;54.298;10.172;2024-01-27T10:19:19;7.20;1.00
2463;DHT22;1243;54.298;10.172;2024-01-27T10:21:46;7.20;1.00
2463;DHT22;1243;54.298;10.172;2024-01-27T10:24:12;7.10;1.00
2463;DHT22;1243;54.298;10.172;2024-01-27T10:26:38;7.20;1.00
2463;DHT22;1243;54.298;10.172;2024-01-27T10:29:04;7.20;1.00
2463;DHT22;1243;54.298;10.172;2024-01-27T10:31:34;7.30;1.00
2463;DHT22;1243;54.298;10.172;2024-01-27T10:34:00;7.30;1.00
2463;DHT22;1243;54.298;10.172;2024-01-27T10:36:43;7.20;1.00
2463;DHT22;1243;54.298;10.172;2024-01-27T10:39:17;7.20;1.00
2463;DHT22;1243;54.298;10.172;2024-01-27T10:41:47;7.30;1.00
2463;DHT22;1243;54.298;10.172;2024-01-27T10:44:17;7.30;1.00
2463;DHT22;1243;54.298;10.172;2024-01-27T10:46:45;7.30;1.00
2463;DHT22;1243;54.298;10.172;2024-01-27T10:49:18;7.30;1.00
2463;DHT22;1243;54.298;10.172;2024-01-27T10:51:53;7.30;1.00
2463;DHT22;1243;54.298;10.172;2024-01-27T10:54:25;7.30;1.00
2463;DHT22;1243;54.298;10.172;2024-01-27T10:56:53;7.30;1.00
2463;DHT22;1243;54.298;10.172;2024-01-27T10:59:21;7.30;1.00
2463;DHT22;1243;54.298;10.172;2024-01-27T11:01:49;7.40;1.00
2463;DHT22;1243;54.298;10.172;2024-01-27T11:04:20;7.30;1.00
2463;DHT22;1243;54.298;10.172;2024-01-27T11:06:47;7.40;1.00
2463;DHT22;1243;54.298;10.172;2024-01-27T11:09:14;7.50;1.00
2463;DHT22;1243;54.298;10.172;2024-01-27T11:11:44;7.50;1.00
2463;DHT22;1243;54.298;10.172;2024-01-27T11:14:10;7.60;1.00
2463;DHT22;1243;54.298;10.172;2024-01-27T11:16:36;7.50;1.00
2463;DHT22;1243;54.298;10.172;2024-01-27T11:19:13;7.50;1.00
2463;DHT22;1243;54.298;10.172;2024-01-27T11:21:39;7.50;1.00
2463;DHT22;1243;54.298;10.172;2024-01-27T11:24:15;7.60;1.00
2463;DHT22;1243;54.298;10.172;2024-01-27T11:26:41;7.50;1.00
2463;DHT22;1243;54.298;10.172;2024-01-27T11:29:07;7.50;1.00
2463;DHT22;1243;54.298;10.172;2024-01-27T11:31:45;7.50;1.00
2463;DHT22;1243;54.298;10.172;2024-01-27T11:34:11;7.50;1.00
2463;DHT22;1243;54.298;10.172;2024-01-27T11:36:44;7.50;1.00
2463;DHT22;1243;54.298;10.172;2024-01-27T11:39:29;7.60;1.00
2463;DHT22;1243;54.298;10.172;2024-01-27T11:42:05;7.70;1.00
2463;DHT22;1243;54.298;10.172;2024-01-27T11:44:33;7.70;1.00
2463;DHT22;1243;54.298;10.172;2024-01-27T11:46:59;7.70;1.00
2463;DHT22;1243;54.298;10.172;2024-01-27T11:49:25;7.80;1.00
2463;DHT22;1243;54.298;10.172;2024-01-27T11:51:50;7.90;1.00
2463;DHT22;1243;54.298;10.172;2024-01-27T11:54:16;7.90;1.00
2463;DHT22;1243;54.298;10.172;2024-01-27T11:56:42;8.00;1.00
2463;DHT22;1243;54.298;10.172;2024-01-27T11:59:10;8.10;1.00
2463;DHT22;1243;54.298;10.172;2024-01-27T12:01:36;8.00;1.00
2463;DHT22;1243;54.298;10.172;2024-01-27T12:04:03;8.00;1.00
2463;DHT22;1243;54.298;10.172;2024-01-27T12:06:30;8.00;1.00
2463;DHT22;1243;54.298;10.172;2024-01-27T12:08:57;8.00;99.90
2463;DHT22;1243;54.298;10.172;2024-01-27T12:11:26;8.00;99.90
2463;DHT22;1243;54.298;10.172;2024-01-27T12:13:52;8.00;99.90
2463;DHT22;1243;54.298;10.172;2024-01-27T12:16:18;8.00;99.90
2463;DHT22;1243;54.298;10.172;2024-01-27T12:18:45;8.00;99.90
2463;DHT22;1243;54.298;10.172;2024-01-27T12:21:11;8.00;99.90
2463;DHT22;1243;54.298;10.172;2024-01-27T12:23:47;8.10;99.90
2463;DHT22;1243;54.298;10.172;2024-01-27T12:26:14;8.10;99.90
2463;DHT22;1243;54.298;10.172;2024-01-27T12:28:40;8.10;99.90
2463;DHT22;1243;54.298;10.172;2024-01-27T12:31:06;8.10;99.90
2463;DHT22;1243;54.298;10.172;2024-01-27T12:33:31;8.20;99.90
2463;DHT22;1243;54.298;10.172;2024-01-27T12:35:57;8.10;99.90
2463;DHT22;1243;54.298;10.172;2024-01-27T12:38:23;8.00;99.90
2463;DHT22;1243;54.298;10.172;2024-01-27T12:40:49;8.00;99.90
2463;DHT22;1243;54.298;10.172;2024-01-27T12:43:14;8.00;99.90
2463;DHT22;1243;54.298;10.172;2024-01-27T12:45:41;8.00;99.90
2463;DHT22;1243;54.298;10.172;2024-01-27T12:48:06;7.90;99.90
2463;DHT22;1243;54.298;10.172;2024-01-27T12:50:32;7.90;99.90
2463;DHT22;1243;54.298;10.172;2024-01-27T12:52:59;7.90;99.90
2463;DHT22;1243;54.298;10.172;2024-01-27T12:55:25;7.80;99.90
2463;DHT22;1243;54.298;10.172;2024-01-27T12:57:50;7.80;99.90
2463;DHT22;1243;54.298;10.172;2024-01-27T13:00:16;7.80;99.90
2463;DHT22;1243;54.298;10.172;2024-01-27T13:02:42;7.90;99.90
2463;DHT22;1243;54.298;10.172;2024-01-27T13:05:08;7.80;99.90
2463;DHT22;1243;54.298;10.172;2024-01-27T13:07:35;7.80;99.90
2463;DHT22;1243;54.298;10.172;2024-01-27T13:10:00;7.80;99.90
2463;DHT22;1243;54.298;10.172;2024-01-27T13:12:26;7.70;99.90
2463;DHT22;1243;54.298;10.172;2024-01-27T13:14:52;7.70;99.90
2463;DHT22;1243;54.298;10.172;2024-01-27T13:17:18;7.70;99.90
2463;DHT22;1243;54.298;10.172;2024-01-27T13:19:45;7.70;99.90
2463;DHT22;1243;54.298;10.172;2024-01-27T13:22:11;7.60;99.90
2463;DHT22;1243;54.298;10.172;2024-01-27T13:24:37;7.60;99.90
2463;DHT22;1243;54.298;10.172;2024-01-27T13:27:04;7.50;99.90
2463;DHT22;1243;54.298;10.172;2024-01-27T13:29:30;7.50;99.90
2463;DHT22;1243;54.298;10.172;2024-01-27T13:31:58;7.50;99.90
2463;DHT22;1243;54.298;10.172;2024-01-27T13:34:24;7.40;99.90
2463;DHT22;1243;54.298;10.172;2024-01-27T13:36:49;7.40;99.90
2463;DHT22;1243;54.298;10.172;2024-01-27T13:39:15;7.40;99.90
2463;DHT22;1243;54.298;10.172;2024-01-27T13:41:41;7.40;99.90
2463;DHT22;1243;54.298;10.172;2024-01-27T13:44:06;7.40;99.90
2463;DHT22;1243;54.298;10.172;2024-01-27T13:46:32;7.50;99.90
2463;DHT22;1243;54.298;10.172;2024-01-27T13:48:58;7.50;99.90
2463;DHT22;1243;54.298;10.172;2024-01-27T13:51:24;7.40;99.90
2463;DHT22;1243;54.298;10.172;2024-01-27T13:53:50;7.50;99.90
2463;DHT22;1243;54.298;10.172;2024-01-27T13:56:15;7.40;99.90
2463;DHT22;1243;54.298;10.172;2024-01-27T13:58:42;7.40;99.90
2463;DHT22;1243;54.298;10.172;2024-01-27T14:01:07;7.40;99.90
2463;DHT22;1243;54.298;10.172;2024-01-27T14:03:33;7.40;99.90
2463;DHT22;1243;54.298;10.172;2024-01-27T14:05:59;7.40;99.90
2463;DHT22;1243;54.298;10.172;2024-01-27T14:08:25;7.40;99.90
2463;DHT22;1243;54.298;10.172;2024-01-27T14:10:51;7.20;99.90
2463;DHT22;1243;54.298;10.172;2024-01-27T14:13:18;7.30;99.90
2463;DHT22;1243;54.298;10.172;2024-01-27T14:15:44;7.30;99.90
2463;DHT22;1243;54.298;10.172;2024-01-27T14:18:09;7.20;99.90
2463;DHT22;1243;54.298;10.172;2024-01-27T14:20:39;7.20;99.90
2463;DHT22;1243;54.298;10.172;2024-01-27T14:23:05;7.20;99.90
2463;DHT22;1243;54.298;10.172;2024-01-27T14:25:32;7.20;99.90
2463;DHT22;1243;54.298;10.172;2024-01-27T14:27:57;7.10;99.90
2463;DHT22;1243;54.298;10.172;2024-01-27T14:30:23;7.10;99.90
2463;DHT22;1243;54.298;10.172;2024-01-27T14:32:49;7.10;99.90
2463;DHT22;1243;54.298;10.172;2024-01-27T14:35:15;7.10;99.90
2463;DHT22;1243;54.298;10.172;2024-01-27T14:37:40;7.10;99.90
2463;DHT22;1243;54.298;10.172;2024-01-27T14:40:06;7.10;1.00
2463;DHT22;1243;54.298;10.172;2024-01-27T14:42:33;7.10;1.00
2463;DHT22;1243;54.298;10.172;2024-01-27T14:45:01;7.10;1.00
2463;DHT22;1243;54.298;10.172;2024-01-27T14:47:27;7.20;1.00
2463;DHT22;1243;54.298;10.172;2024-01-27T14:49:53;7.20;1.00
2463;DHT22;1243;54.298;10.172;2024-01-27T14:52:18;7.20;1.00
2463;DHT22;1243;54.298;10.172;2024-01-27T14:54:45;7.20;1.00
2463;DHT22;1243;54.298;10.172;2024-01-27T14:57:11;7.20;1.00
2463;DHT22;1243;54.298;10.172;2024-01-27T14:59:37;7.20;1.00
2463;DHT22;1243;54.298;10.172;2024-01-27T15:02:04;7.20;1.00
2463;DHT22;1243;54.298;10.172;2024-01-27T15:04:31;7.20;1.00
2463;DHT22;1243;54.298;10.172;2024-01-27T15:06:57;7.20;1.00
2463;DHT22;1243;54.298;10.172;2024-01-27T15:09:23;7.20;1.00
2463;DHT22;1243;54.298;10.172;2024-01-27T15:11:51;7.10;1.00
2463;DHT22;1243;54.298;10.172;2024-01-27T15:14:17;7.10;1.00
2463;DHT22;1243;54.298;10.172;2024-01-27T15:16:44;7.20;1.00
2463;DHT22;1243;54.298;10.172;2024-01-27T15:19:10;7.20;1.00
2463;DHT22;1243;54.298;10.172;2024-01-27T15:21:36;7.20;1.00
2463;DHT22;1243;54.298;10.172;2024-01-27T15:24:01;7.20;1.00
2463;DHT22;1243;54.298;10.172;2024-01-27T15:26:27;7.10;1.00
2463;DHT22;1243;54.298;10.172;2024-01-27T15:28:53;7.10;1.00
2463;DHT22;1243;54.298;10.172;2024-01-27T15:31:18;7.10;1.00
2463;DHT22;1243;54.298;10.172;2024-01-27T15:33:44;7.10;1.00
2463;DHT22;1243;54.298;10.172;2024-01-27T15:36:10;7.10;1.00
2463;DHT22;1243;54.298;10.172;2024-01-27T15:38:36;7.10;1.00
2463;DHT22;1243;54.298;10.172;2024-01-27T15:41:02;7.10;1.00
2463;DHT22;1243;54.298;10.172;2024-01-27T15:43:35;7.20;1.00
2463;DHT22;1243;54.298;10.172;2024-01-27T15:46:01;7.10;1.00
2463;DHT22;1243;54.298;10.172;2024-01-27T15:48:34;7.20;1.00
2463;DHT22;1243;54.298;10.172;2024-01-27T15:51:02;7.10;1.00
2463;DHT22;1243;54.298;10.172;2024-01-27T15:53:28;7.10;1.00
2463;DHT22;1243;54.298;10.172;2024-01-27T15:55:53;7.10;1.00
2463;DHT22;1243;54.298;10.172;2024-01-27T15:58:20;7.00;1.00
2463;DHT22;1243;54.298;10.172;2024-01-27T16:00:46;7.10;1.00
2463;DHT22;1243;54.298;10.172;2024-01-27T16:03:12;7.10;1.00
2463;DHT22;1243;54.298;10.172;2024-01-27T16:05:38;7.10;1.00
2463;DHT22;1243;54.298;10.172;2024-01-27T16:08:04;7.10;1.00